Time;durP1;ratioP1;P1;durP2;ratioP2;P2;SDS_P1;SDS_P2;PMS_P1;PMS_P2;Temp;Humidity;BMP_temperature;BMP_pressure;BME280_temperature;BME280_humidity;BME280_pressure;Samples;Min_cycle;Max_cycle;Signal;HPM_P1;HPM_P2
2023/05/19 04:30:28;;;;;;;16.05;5.57;;;11.40;70.40;;;;;;6031312;22;20079;-79
2023/05/19 04:32:54;;;;;;;16.55;5.18;;;11.40;70.20;;;;;;5010690;28;20836;-79
2023/05/19 04:35:20;;;;;;;15.00;6.05;;;11.40;70.60;;;;;;5005025;28;20032;-79
2023/05/19 04:37:45;;;;;;;11.32;5.00;;;11.40;70.70;;;;;;5012283;28;20499;-79
2023/05/19 04:40:14;;;;;;;11.02;5.55;;;11.30;70.70;;;;;;4994774;28;20845;-78
2023/05/19 04:42:41;;;;;;;12.02;5.97;;;11.40;70.30;;;;;;4992718;28;20026;-79
2023/05/19 04:45:07;;;;;;;11.43;5.55;;;11.40;70.70;;;;;;4974955;28;20035;-78
2023/05/19 04:47:37;;;;;;;13.80;4.75;;;11.40;70.00;;;;;;4992575;28;20040;-78
2023/05/19 04:50:03;;;;;;;9.25;4.55;;;11.40;70.10;;;;;;4992402;28;20080;-78
2023/05/19 04:52:29;;;;;;;11.77;4.70;;;11.50;69.90;;;;;;4992657;28;20050;-79
2023/05/19 04:54:55;;;;;;;9.70;5.25;;;11.50;70.30;;;;;;4992358;28;20029;-79
2023/05/19 04:57:21;;;;;;;10.88;4.70;;;11.40;70.60;;;;;;4992760;28;20069;-78
2023/05/19 04:59:46;;;;;;;11.98;5.53;;;11.40;70.70;;;;;;4992227;28;20031;-78
2023/05/19 05:02:12;;;;;;;13.35;4.47;;;11.40;70.60;;;;;;5005467;28;20033;-79
2023/05/19 05:04:41;;;;;;;11.88;5.38;;;11.40;70.30;;;;;;5014023;28;20026;-79
2023/05/19 05:07:07;;;;;;;8.85;4.57;;;11.50;70.20;;;;;;5028915;28;20036;-79
2023/05/19 05:09:32;;;;;;;10.20;5.03;;;11.50;69.90;;;;;;5021619;28;20479;-79
2023/05/19 05:11:59;;;;;;;11.55;4.47;;;11.50;70.00;;;;;;5014283;28;20445;-79
2023/05/19 05:14:25;;;;;;;10.90;5.07;;;11.50;70.00;;;;;;4999663;28;20053;-79
2023/05/19 05:16:51;;;;;;;9.68;5.18;;;11.50;69.40;;;;;;4999769;28;20062;-79
2023/05/19 05:19:17;;;;;;;13.93;4.65;;;11.50;69.00;;;;;;4992141;28;20026;-79
2023/05/19 05:21:43;;;;;;;13.90;4.97;;;11.60;69.80;;;;;;5038937;28;20027;-79
2023/05/19 05:24:10;;;;;;;10.05;4.90;;;11.60;68.40;;;;;;5021096;28;20036;-79
2023/05/19 05:26:36;;;;;;;7.03;4.35;;;11.60;68.80;;;;;;5038931;28;20033;-78
2023/05/19 05:29:02;;;;;;;14.95;5.15;;;11.70;68.20;;;;;;5028248;28;20022;-78
2023/05/19 05:31:28;;;;;;;14.15;4.78;;;11.70;68.40;;;;;;4987887;28;20162;-79
2023/05/19 05:33:54;;;;;;;6.90;5.10;;;11.70;69.20;;;;;;5019010;28;20058;-79
2023/05/19 05:36:19;;;;;;;13.23;4.53;;;11.70;68.70;;;;;;5012524;28;20041;-79
2023/05/19 05:38:45;;;;;;;10.20;4.82;;;11.70;68.80;;;;;;5017118;28;20500;-80
2023/05/19 05:41:11;;;;;;;9.60;4.30;;;11.70;69.00;;;;;;4999285;28;20026;-79
2023/05/19 05:43:36;;;;;;;10.00;5.00;;;11.70;68.90;;;;;;4981523;28;20481;-79
2023/05/19 05:46:02;;;;;;;14.23;5.95;;;11.80;69.50;;;;;;4999791;28;20477;-79
2023/05/19 05:48:28;;;;;;;9.60;4.68;;;11.80;69.00;;;;;;4998981;28;20026;-79
2023/05/19 05:50:56;;;;;;;11.82;4.85;;;11.80;67.70;;;;;;4998852;28;20085;-79
2023/05/19 05:53:24;;;;;;;11.50;5.15;;;11.90;68.60;;;;;;4999533;28;20036;-80
2023/05/19 05:55:50;;;;;;;11.30;5.07;;;11.90;69.10;;;;;;4997238;28;20535;-80
2023/05/19 05:58:15;;;;;;;13.13;4.57;;;11.90;68.00;;;;;;4981429;28;20030;-79
2023/05/19 06:00:42;;;;;;;11.57;4.80;;;12.00;68.40;;;;;;4998918;28;20034;-79
2023/05/19 06:03:09;;;;;;;11.73;5.28;;;11.90;69.00;;;;;;5002419;28;20105;-80
2023/05/19 06:05:35;;;;;;;12.57;4.85;;;12.00;67.90;;;;;;5000912;28;20829;-79
2023/05/19 06:08:01;;;;;;;11.70;5.35;;;12.00;68.30;;;;;;5002655;28;20026;-79
2023/05/19 06:10:30;;;;;;;13.52;4.93;;;12.10;68.00;;;;;;5004788;28;20036;-80
2023/05/19 06:12:56;;;;;;;9.45;4.22;;;12.20;67.10;;;;;;5036958;28;20032;-79
2023/05/19 06:15:21;;;;;;;11.20;4.55;;;12.20;67.20;;;;;;5036060;28;20105;-80
2023/05/19 06:17:47;;;;;;;12.60;4.70;;;12.30;68.70;;;;;;4998493;28;20034;-79
2023/05/19 06:20:13;;;;;;;12.20;4.90;;;12.30;67.70;;;;;;4999026;28;20030;-79
2023/05/19 06:22:39;;;;;;;9.77;4.63;;;12.40;67.00;;;;;;4998579;28;20030;-80
2023/05/19 06:25:05;;;;;;;10.30;5.30;;;12.40;67.10;;;;;;4998406;28;20378;-80
2023/05/19 06:27:31;;;;;;;13.55;4.88;;;12.50;67.50;;;;;;4998524;28;20107;-80
2023/05/19 06:29:57;;;;;;;9.40;5.40;;;12.50;67.80;;;;;;4981019;28;20492;-79
2023/05/19 06:32:22;;;;;;;10.75;5.65;;;12.60;66.80;;;;;;5030202;28;20050;-79
2023/05/19 06:34:52;;;;;;;13.38;5.18;;;12.60;67.30;;;;;;5018040;28;20080;-79
2023/05/19 06:37:21;;;;;;;11.00;5.07;;;12.70;67.60;;;;;;5018201;28;20050;-79
2023/05/19 06:39:48;;;;;;;13.45;4.72;;;12.80;67.40;;;;;;5007704;28;20038;-79
2023/05/19 06:42:14;;;;;;;13.82;6.10;;;12.80;68.30;;;;;;4990448;28;20026;-79
2023/05/19 06:44:39;;;;;;;13.43;4.90;;;12.90;67.80;;;;;;5017256;28;20451;-79
2023/05/19 06:47:05;;;;;;;8.75;4.55;;;12.90;67.70;;;;;;5004363;28;20049;-80
2023/05/19 06:49:30;;;;;;;9.32;4.78;;;13.00;68.30;;;;;;4996726;28;20488;-79
2023/05/19 06:51:56;;;;;;;9.23;5.30;;;13.00;68.30;;;;;;4997668;28;20030;-79
2023/05/19 06:54:22;;;;;;;11.45;5.18;;;13.10;67.90;;;;;;4980463;28;20038;-79
2023/05/19 06:56:47;;;;;;;10.38;5.15;;;13.20;68.10;;;;;;4997830;28;20030;-79
2023/05/19 06:59:14;;;;;;;11.15;4.18;;;13.20;67.10;;;;;;4997680;28;20049;-79
2023/05/19 07:01:39;;;;;;;10.48;3.88;;;13.30;67.60;;;;;;4997911;28;20027;-79
2023/05/19 07:04:05;;;;;;;10.05;5.13;;;13.40;67.10;;;;;;5009297;28;20112;-79
2023/05/19 07:06:30;;;;;;;10.88;4.38;;;13.50;67.30;;;;;;4997891;28;20032;-79
2023/05/19 07:08:56;;;;;;;10.60;4.50;;;13.60;66.40;;;;;;4997657;28;20484;-79
2023/05/19 07:11:22;;;;;;;11.98;4.68;;;13.70;66.50;;;;;;5009354;28;20026;-79
2023/05/19 07:13:47;;;;;;;7.40;4.30;;;13.80;66.40;;;;;;4999635;28;20026;-79
2023/05/19 07:16:13;;;;;;;13.27;5.07;;;14.00;65.50;;;;;;4995678;28;20077;-79
2023/05/19 07:18:38;;;;;;;9.07;4.45;;;14.30;66.10;;;;;;4997453;28;20034;-79
2023/05/19 07:21:06;;;;;;;10.73;4.18;;;15.20;64.50;;;;;;4997119;28;20041;-79
2023/05/19 07:23:31;;;;;;;11.05;4.07;;;17.20;60.00;;;;;;5017108;28;20025;-79
2023/05/19 07:25:57;;;;;;;9.48;4.55;;;18.90;55.10;;;;;;4999096;28;20014;-80
2023/05/19 07:28:23;;;;;;;11.45;4.93;;;21.40;49.40;;;;;;5010466;28;20040;-81
2023/05/19 07:30:49;;;;;;;10.48;4.22;;;23.50;44.50;;;;;;4996784;28;20073;-80
2023/05/19 07:33:14;;;;;;;8.70;4.25;;;25.10;41.30;;;;;;4984576;28;20497;-81
2023/05/19 07:35:40;;;;;;;13.25;4.88;;;26.30;38.70;;;;;;5016653;28;20432;-80
2023/05/19 07:38:06;;;;;;;10.93;4.72;;;27.30;36.60;;;;;;4999126;28;20061;-81
2023/05/19 07:40:31;;;;;;;9.98;4.72;;;28.10;35.30;;;;;;4986670;28;20026;-81
2023/05/19 07:42:57;;;;;;;8.38;4.55;;;29.00;33.90;;;;;;4997087;28;20097;-81
2023/05/19 07:45:23;;;;;;;8.18;4.75;;;29.50;33.70;;;;;;4996987;28;20026;-81
2023/05/19 07:47:48;;;;;;;12.68;5.03;;;30.00;32.50;;;;;;4996707;28;20105;-81
2023/05/19 07:50:15;;;;;;;9.52;4.72;;;30.50;31.90;;;;;;4996877;28;20074;-81
2023/05/19 07:52:40;;;;;;;10.75;5.32;;;30.90;30.80;;;;;;5015213;28;20021;-81
2023/05/19 07:55:06;;;;;;;12.25;4.80;;;31.30;30.20;;;;;;5007924;28;20101;-81
2023/05/19 07:57:32;;;;;;;9.05;4.72;;;31.70;29.80;;;;;;4996874;28;20056;-81
2023/05/19 07:59:57;;;;;;;9.48;4.93;;;31.90;29.20;;;;;;4996720;28;20023;-81
2023/05/19 08:02:23;;;;;;;10.00;5.13;;;32.10;28.40;;;;;;4979241;28;20061;-81
2023/05/19 08:04:48;;;;;;;12.57;5.47;;;32.30;28.20;;;;;;4997711;28;20030;-81
2023/05/19 08:07:14;;;;;;;10.90;5.68;;;32.50;28.10;;;;;;4995188;28;20034;-81
2023/05/19 08:09:40;;;;;;;7.78;5.05;;;32.80;27.50;;;;;;4996443;28;20026;-80
2023/05/19 08:12:05;;;;;;;10.65;6.05;;;33.00;27.30;;;;;;5026873;28;20033;-79
2023/05/19 08:14:32;;;;;;;10.60;5.07;;;33.20;27.90;;;;;;4996674;28;20037;-79
2023/05/19 08:16:57;;;;;;;10.23;5.57;;;33.40;27.10;;;;;;4996454;28;20041;-79
2023/05/19 08:19:23;;;;;;;11.27;5.65;;;33.60;27.00;;;;;;4996191;28;20035;-80
2023/05/19 08:21:48;;;;;;;9.75;5.07;;;33.60;26.20;;;;;;4996535;28;20070;-79
2023/05/19 08:24:14;;;;;;;8.38;4.97;;;33.80;25.80;;;;;;4996244;28;20477;-79
2023/05/19 08:26:40;;;;;;;7.95;4.95;;;34.00;26.40;;;;;;4996456;28;20027;-79
2023/05/19 08:29:06;;;;;;;7.85;4.43;;;34.10;26.10;;;;;;4996509;28;20034;-79
2023/05/19 08:31:32;;;;;;;9.13;4.72;;;34.30;25.90;;;;;;4995970;28;20046;-80
2023/05/19 08:33:57;;;;;;;7.68;4.18;;;34.40;25.50;;;;;;5006888;28;20026;-80
2023/05/19 08:36:23;;;;;;;8.07;4.70;;;34.60;25.90;;;;;;5015765;28;20090;-80
2023/05/19 08:38:49;;;;;;;11.63;5.00;;;34.70;25.10;;;;;;5011699;28;20083;-80
2023/05/19 08:41:15;;;;;;;9.07;4.63;;;34.70;24.80;;;;;;5000386;28;20030;-80
2023/05/19 08:43:41;;;;;;;9.63;4.15;;;34.80;25.10;;;;;;5000527;28;20033;-80
2023/05/19 08:46:09;;;;;;;7.03;4.47;;;34.90;24.30;;;;;;4999915;28;20022;-80
2023/05/19 08:48:40;;;;;;;10.60;4.82;;;35.00;24.40;;;;;;5000150;28;20026;-80
2023/05/19 08:51:28;;;;;;;7.68;4.60;;;35.30;25.20;;;;;;5007653;28;20392;-80
2023/05/19 08:53:58;;;;;;;6.95;4.63;;;35.30;24.40;;;;;;5010519;28;20084;-81
2023/05/19 08:56:25;;;;;;;7.97;4.07;;;35.30;24.30;;;;;;5000142;28;20473;-80
2023/05/19 08:58:51;;;;;;;7.78;4.60;;;35.60;24.40;;;;;;5000073;28;20030;-80
2023/05/19 09:01:18;;;;;;;8.98;4.35;;;35.30;24.80;;;;;;4999762;28;20093;-80
2023/05/19 09:03:45;;;;;;;8.52;4.15;;;35.20;24.80;;;;;;5008594;28;20022;-80
2023/05/19 09:06:11;;;;;;;10.75;4.80;;;35.40;24.50;;;;;;5019738;28;20022;-80
2023/05/19 09:08:38;;;;;;;9.23;4.75;;;35.60;24.20;;;;;;5001918;28;20026;-80
2023/05/19 09:11:04;;;;;;;8.93;4.53;;;35.60;23.70;;;;;;4998761;28;20022;-80
2023/05/19 09:13:30;;;;;;;7.65;4.10;;;35.60;24.50;;;;;;4999940;28;20026;-80
2023/05/19 09:15:56;;;;;;;9.10;4.65;;;35.70;24.70;;;;;;4982122;28;20452;-80
2023/05/19 09:18:24;;;;;;;13.07;5.05;;;35.80;24.20;;;;;;4982357;28;20030;-80
2023/05/19 09:20:49;;;;;;;6.53;4.13;;;36.00;23.80;;;;;;4999451;28;20034;-80
2023/05/19 09:23:17;;;;;;;9.48;4.60;;;36.00;24.10;;;;;;4982173;28;20100;-80
2023/05/19 09:25:46;;;;;;;6.88;4.40;;;36.00;24.40;;;;;;5001169;28;20018;-80
2023/05/19 09:28:11;;;;;;;7.55;4.22;;;36.30;24.00;;;;;;5008595;28;20034;-80
2023/05/19 09:30:38;;;;;;;7.45;3.78;;;36.30;23.40;;;;;;4999124;28;20117;-80
2023/05/19 09:33:07;;;;;;;7.50;4.95;;;36.40;24.40;;;;;;4995143;28;20030;-80
2023/05/19 09:35:33;;;;;;;9.60;4.75;;;36.40;24.50;;;;;;5018881;28;20087;-80
2023/05/19 09:38:00;;;;;;;7.07;4.28;;;36.50;24.10;;;;;;5019040;28;20101;-80
2023/05/19 09:40:27;;;;;;;9.80;4.88;;;36.50;24.30;;;;;;5003646;28;20045;-80
2023/05/19 09:42:52;;;;;;;7.63;4.95;;;36.60;23.90;;;;;;4999265;28;20053;-80
2023/05/19 09:45:19;;;;;;;8.88;4.65;;;36.40;23.20;;;;;;4999220;28;20030;-80
2023/05/19 09:47:44;;;;;;;6.53;4.22;;;36.60;23.60;;;;;;4999021;28;20045;-80
2023/05/19 09:50:12;;;;;;;6.90;4.53;;;36.30;23.20;;;;;;4999131;28;20105;-80
2023/05/19 09:52:39;;;;;;;11.70;4.85;;;36.20;23.90;;;;;;4997967;28;20064;-80
2023/05/19 09:55:09;;;;;;;9.20;3.88;;;36.10;23.60;;;;;;4998900;28;20030;-80
2023/05/19 09:57:38;;;;;;;5.90;3.20;;;36.20;24.10;;;;;;4997788;28;20030;-80
2023/05/19 10:00:18;;;;;;;6.40;3.38;;;36.30;23.40;;;;;;4998860;28;20024;-80
2023/05/19 10:02:45;;;;;;;7.13;3.60;;;36.30;23.20;;;;;;5016119;28;20030;-80
2023/05/19 10:05:18;;;;;;;7.20;3.15;;;36.20;23.80;;;;;;5018418;28;20366;-80
2023/05/19 10:07:51;;;;;;;7.13;3.15;;;36.10;24.30;;;;;;5018394;28;20022;-80
2023/05/19 10:10:20;;;;;;;8.85;3.65;;;36.00;24.20;;;;;;5009230;28;20081;-80
2023/05/19 10:12:47;;;;;;;8.63;3.45;;;35.70;24.60;;;;;;5020243;28;20034;-80
2023/05/19 10:15:14;;;;;;;6.75;3.33;;;35.60;24.60;;;;;;5028398;28;20371;-79
2023/05/19 10:17:41;;;;;;;7.45;3.50;;;35.20;25.20;;;;;;5006600;28;20033;-79
2023/05/19 10:20:15;;;;;;;9.30;3.42;;;34.90;25.20;;;;;;5001217;28;20477;-79
2023/05/19 10:22:42;;;;;;;7.22;2.85;;;34.80;25.40;;;;;;4998276;28;20401;-79
2023/05/19 10:25:09;;;;;;;9.63;3.70;;;34.60;25.80;;;;;;4997305;28;20026;-79
2023/05/19 10:27:39;;;;;;;6.88;4.13;;;34.40;25.40;;;;;;4998453;28;20026;-79
2023/05/19 10:30:15;;;;;;;5.57;2.72;;;33.90;25.60;;;;;;4996108;28;20412;-79
2023/05/19 10:32:42;;;;;;;8.38;3.28;;;33.40;26.60;;;;;;4998882;28;20374;-79
2023/05/19 10:35:17;;;;;;;8.05;3.22;;;32.60;27.30;;;;;;5017905;28;20029;-79
2023/05/19 10:38:05;;;;;;;5.15;2.88;;;31.70;28.20;;;;;;5001810;28;20030;-78
2023/05/19 10:40:46;;;;;;;6.50;3.33;;;31.00;29.00;;;;;;4997747;28;20068;-79
2023/05/19 10:43:43;;;;;;;5.72;3.08;;;30.30;30.00;;;;;;4980699;28;20045;-79
2023/05/19 10:46:09;;;;;;;5.40;3.40;;;29.60;30.70;;;;;;4994770;28;20490;-78
2023/05/19 10:48:35;;;;;;;6.97;3.40;;;29.10;31.50;;;;;;5014640;28;20069;-78
2023/05/19 10:51:01;;;;;;;8.93;3.45;;;28.50;31.20;;;;;;4998234;28;20049;-78
2023/05/19 10:53:33;;;;;;;6.60;2.92;;;28.00;32.70;;;;;;4998187;28;20039;-78
2023/05/19 10:56:05;;;;;;;7.38;3.42;;;27.80;33.40;;;;;;4997995;28;20031;-78
2023/05/19 10:58:57;;;;;;;8.32;2.95;;;27.50;34.10;;;;;;4997877;28;20126;-78
2023/05/19 11:01:30;;;;;;;8.40;3.08;;;27.40;33.60;;;;;;4994855;28;20108;-78
2023/05/19 11:03:56;;;;;;;7.82;2.95;;;27.20;33.80;;;;;;5000784;28;20025;-78
2023/05/19 11:06:34;;;;;;;7.93;3.53;;;27.00;33.60;;;;;;4980170;28;20026;-78
2023/05/19 11:09:10;;;;;;;6.18;3.05;;;26.80;34.90;;;;;;4997688;28;20022;-78
2023/05/19 11:11:54;;;;;;;5.82;3.28;;;26.80;34.80;;;;;;5024576;28;20021;-79
2023/05/19 11:14:30;;;;;;;8.93;3.13;;;26.60;34.60;;;;;;5004844;28;20081;-78
2023/05/19 11:16:57;;;;;;;6.60;2.80;;;26.30;34.40;;;;;;4991037;28;20112;-78
2023/05/19 11:19:30;;;;;;;8.75;3.15;;;26.20;35.40;;;;;;4997402;28;20026;-78
2023/05/19 11:21:56;;;;;;;6.82;3.05;;;26.10;35.20;;;;;;4997330;28;20455;-78
2023/05/19 11:24:46;;;;;;;5.38;2.63;;;26.00;35.40;;;;;;4997420;28;20054;-78
2023/05/19 11:27:29;;;;;;;6.80;2.92;;;26.00;36.00;;;;;;4994806;28;20041;-79
2023/05/19 11:30:05;;;;;;;6.97;3.22;;;26.00;36.50;;;;;;4997107;28;20449;-78
2023/05/19 11:32:32;;;;;;;9.98;3.40;;;25.90;36.20;;;;;;4998162;28;20056;-79
2023/05/19 11:34:59;;;;;;;6.95;3.10;;;25.90;36.70;;;;;;5016758;28;20024;-78
2023/05/19 11:37:25;;;;;;;7.15;3.10;;;25.90;36.60;;;;;;5004008;28;20109;-78
2023/05/19 11:39:51;;;;;;;5.68;3.05;;;25.80;36.20;;;;;;4997106;28;20560;-78
2023/05/19 11:42:17;;;;;;;5.30;2.83;;;25.80;36.20;;;;;;4979767;28;20030;-78
2023/05/19 11:44:47;;;;;;;6.03;3.63;;;25.60;36.70;;;;;;4979673;28;20038;-78
2023/05/19 11:47:16;;;;;;;7.55;3.28;;;25.60;36.30;;;;;;4995607;28;20068;-78
2023/05/19 11:49:47;;;;;;;9.73;3.33;;;25.50;36.20;;;;;;4997109;28;20064;-78
2023/05/19 11:52:13;;;;;;;7.80;3.58;;;25.40;37.00;;;;;;4996617;28;20027;-78
2023/05/19 11:54:40;;;;;;;7.10;3.30;;;25.40;37.40;;;;;;4996921;28;20030;-78
2023/05/19 11:57:08;;;;;;;5.28;3.30;;;25.40;36.70;;;;;;4996933;28;20041;-78
2023/05/19 11:59:39;;;;;;;8.80;4.40;;;25.30;36.70;;;;;;4996857;28;20477;-78
2023/05/19 12:02:19;;;;;;;7.88;3.80;;;25.30;36.80;;;;;;4980345;28;20042;-78
2023/05/19 12:04:44;;;;;;;;;;;25.30;36.70;;;;;;4995227;28;20031;-79
2023/05/19 12:07:11;;;;;;;6.03;3.30;;;25.40;36.60;;;;;;4996368;28;19933;-78
2023/05/19 12:09:38;;;;;;;6.13;2.80;;;25.40;36.70;;;;;;4996659;28;20633;-78
2023/05/19 12:12:04;;;;;;;5.53;3.40;;;25.50;36.80;;;;;;5000100;28;20073;-78
2023/05/19 12:14:30;;;;;;;10.23;3.80;;;25.50;36.90;;;;;;4995329;28;20118;-78
2023/05/19 12:16:56;;;;;;;7.68;3.33;;;25.60;36.80;;;;;;4996603;28;20023;-78
2023/05/19 12:19:25;;;;;;;8.27;3.42;;;25.60;36.10;;;;;;4996750;28;20370;-78
2023/05/19 12:21:51;;;;;;;5.88;2.95;;;25.50;35.70;;;;;;4996796;28;20038;-77
2023/05/19 12:24:19;;;;;;;6.43;3.20;;;25.60;35.60;;;;;;4996385;28;20030;-77
2023/05/19 12:26:44;;;;;;;9.30;4.20;;;25.60;36.50;;;;;;4996460;28;20061;-78
2023/05/19 12:29:12;;;;;;;8.93;3.83;;;25.60;36.80;;;;;;4996352;28;20378;-78
2023/05/19 12:31:38;;;;;;;6.18;3.53;;;25.60;37.30;;;;;;4978452;28;20128;-78
2023/05/19 12:34:04;;;;;;;7.30;3.20;;;25.50;36.90;;;;;;5011322;28;20030;-78
2023/05/19 12:36:31;;;;;;;11.77;4.38;;;25.40;36.60;;;;;;5015977;28;20026;-78
2023/05/19 12:38:57;;;;;;;7.47;3.97;;;25.30;36.80;;;;;;4997174;28;20056;-78
2023/05/19 12:41:26;;;;;;;11.75;4.15;;;25.20;37.50;;;;;;5016067;28;20019;-77
2023/05/19 12:43:53;;;;;;;6.80;3.90;;;25.20;37.60;;;;;;5015818;28;20022;-77
2023/05/19 12:46:19;;;;;;;9.10;3.67;;;25.20;38.50;;;;;;5015304;28;20022;-78
2023/05/19 12:48:45;;;;;;;9.10;4.20;;;25.20;38.60;;;;;;4993762;28;20099;-78
2023/05/19 12:51:18;;;;;;;9.45;4.70;;;25.10;38.50;;;;;;4996299;28;20023;-78
2023/05/19 12:53:45;;;;;;;9.23;4.05;;;25.00;38.00;;;;;;4996280;28;20023;-78
2023/05/19 12:56:12;;;;;;;6.05;3.63;;;24.90;38.60;;;;;;4996263;28;20026;-78
2023/05/19 12:58:38;;;;;;;8.98;4.10;;;24.90;39.00;;;;;;4995868;28;20061;-78
2023/05/19 13:01:06;;;;;;;12.70;4.38;;;25.00;38.70;;;;;;4996109;28;20030;-78
2023/05/19 13:03:31;;;;;;;10.65;4.70;;;25.00;38.40;;;;;;5003025;28;20033;-78
2023/05/19 13:05:58;;;;;;;9.82;4.60;;;25.00;38.20;;;;;;5004374;28;20026;-78
2023/05/19 13:08:24;;;;;;;9.07;3.90;;;24.80;38.20;;;;;;4995893;28;20108;-78
2023/05/19 13:10:50;;;;;;;11.32;4.35;;;24.80;38.20;;;;;;4997232;28;20030;-78
2023/05/19 13:13:16;;;;;;;10.48;4.47;;;24.90;38.60;;;;;;4995957;28;20077;-78
2023/05/19 13:15:43;;;;;;;10.07;3.45;;;24.90;38.70;;;;;;4978514;28;20439;-78
2023/05/19 13:18:11;;;;;;;10.10;4.32;;;24.90;39.20;;;;;;4995991;28;20065;-78
2023/05/19 13:20:38;;;;;;;8.82;3.90;;;24.90;39.30;;;;;;4995790;28;20030;-78
2023/05/19 13:23:04;;;;;;;10.45;4.60;;;24.80;39.80;;;;;;4997533;28;20393;-78
2023/05/19 13:25:34;;;;;;;9.10;4.68;;;24.80;39.90;;;;;;4999744;28;20037;-78
2023/05/19 13:28:04;;;;;;;13.88;5.70;;;24.70;39.90;;;;;;5010640;28;20096;-78
2023/05/19 13:30:33;;;;;;;10.30;5.05;;;24.70;40.20;;;;;;5018998;28;20602;-78
2023/05/19 13:32:58;;;;;;;10.38;5.13;;;24.60;39.80;;;;;;5016167;28;20037;-78
2023/05/19 13:35:24;;;;;;;12.07;5.72;;;24.60;39.90;;;;;;4999557;28;20030;-78
2023/05/19 13:37:50;;;;;;;18.15;7.72;;;24.50;40.10;;;;;;5019016;28;20029;-78
2023/05/19 13:40:16;;;;;;;9.90;3.83;;;24.60;40.20;;;;;;4999759;28;20030;-78
2023/05/19 13:42:42;;;;;;;15.43;7.05;;;24.50;38.90;;;;;;4999164;28;20022;-78
2023/05/19 13:45:08;;;;;;;11.45;5.25;;;24.60;38.90;;;;;;4999192;28;20081;-78
2023/05/19 13:47:34;;;;;;;14.48;6.07;;;24.60;39.90;;;;;;4996684;28;20176;-79
2023/05/19 13:50:03;;;;;;;9.98;5.32;;;24.60;40.10;;;;;;4999228;28;20029;-79
2023/05/19 13:52:28;;;;;;;22.00;10.90;;;24.60;40.20;;;;;;4998946;28;20030;-79
2023/05/19 13:54:55;;;;;;;10.98;4.60;;;24.50;40.50;;;;;;4999089;28;20045;-78
2023/05/19 13:57:25;;;;;;;11.05;5.30;;;24.40;39.80;;;;;;4999002;28;20070;-79
2023/05/19 13:59:51;;;;;;;7.90;4.13;;;24.30;39.80;;;;;;4998856;28;20455;-79
2023/05/19 14:02:17;;;;;;;9.38;5.22;;;24.30;40.00;;;;;;4981300;28;20046;-78
2023/05/19 14:04:43;;;;;;;11.43;4.95;;;24.30;39.80;;;;;;5012028;28;20054;-78
2023/05/19 14:07:09;;;;;;;7.07;4.00;;;24.10;39.70;;;;;;4998870;28;20029;-78
2023/05/19 14:09:35;;;;;;;11.90;5.78;;;24.10;40.60;;;;;;5003193;28;20022;-78
2023/05/19 14:12:01;;;;;;;10.20;5.45;;;24.10;41.20;;;;;;5033249;28;20059;-78
2023/05/19 14:14:27;;;;;;;10.57;4.75;;;24.20;41.40;;;;;;5035505;28;20026;-78
2023/05/19 14:16:52;;;;;;;9.60;5.13;;;24.20;41.60;;;;;;4998744;28;20102;-78
2023/05/19 14:19:18;;;;;;;8.75;4.68;;;24.20;41.30;;;;;;4998514;28;20030;-78
2023/05/19 14:21:44;;;;;;;8.93;5.00;;;24.20;41.60;;;;;;4981172;28;20038;-78
2023/05/19 14:24:10;;;;;;;9.38;5.20;;;24.20;41.90;;;;;;4980955;28;20026;-78
2023/05/19 14:26:35;;;;;;;11.32;4.72;;;24.30;41.90;;;;;;4998224;28;20073;-78
2023/05/19 14:29:02;;;;;;;10.23;6.00;;;24.20;41.80;;;;;;4998298;28;20439;-78
2023/05/19 14:31:27;;;;;;;8.45;4.88;;;24.20;42.00;;;;;;4995692;28;20085;-78
2023/05/19 14:33:53;;;;;;;14.85;6.35;;;24.20;41.80;;;;;;5006235;28;20560;-78
2023/05/19 14:36:18;;;;;;;14.23;5.90;;;24.10;41.70;;;;;;5000936;28;20034;-78
2023/05/19 14:38:44;;;;;;;10.65;5.22;;;24.00;41.90;;;;;;4999953;28;20404;-78
2023/05/19 14:41:10;;;;;;;10.65;5.50;;;24.10;41.80;;;;;;5015006;28;20500;-78
2023/05/19 14:43:35;;;;;;;11.45;5.30;;;24.20;41.60;;;;;;5017327;28;20022;-78
2023/05/19 14:46:01;;;;;;;11.50;5.57;;;24.30;42.00;;;;;;5003355;28;20037;-78
2023/05/19 14:48:26;;;;;;;10.63;5.93;;;24.50;41.80;;;;;;4997943;28;20030;-78
2023/05/19 14:50:52;;;;;;;9.50;4.85;;;24.50;41.60;;;;;;4995594;28;20034;-78
2023/05/19 14:53:18;;;;;;;11.32;5.40;;;24.60;42.20;;;;;;4998184;28;20057;-78
2023/05/19 14:55:47;;;;;;;11.43;5.47;;;24.50;41.00;;;;;;4998052;28;20061;-78
2023/05/19 14:58:12;;;;;;;10.90;4.72;;;24.40;41.60;;;;;;5010358;28;20030;-78
2023/05/19 15:00:38;;;;;;;11.23;5.00;;;24.40;42.20;;;;;;4997672;28;20034;-78
2023/05/19 15:03:04;;;;;;;10.13;4.72;;;24.30;41.80;;;;;;5001088;28;20026;-78
2023/05/19 15:05:29;;;;;;;10.27;5.15;;;24.20;42.10;;;;;;5017467;28;20060;-78
2023/05/19 15:07:55;;;;;;;12.27;4.68;;;24.20;41.90;;;;;;5012668;28;20030;-77
2023/05/19 15:10:21;;;;;;;13.50;4.85;;;24.30;42.50;;;;;;5004439;28;20022;-77
2023/05/19 15:12:47;;;;;;;12.65;5.10;;;24.30;42.40;;;;;;4987744;28;20108;-77
2023/05/19 15:15:16;;;;;;;12.63;4.43;;;24.20;41.70;;;;;;4997428;28;20029;-77
2023/05/19 15:17:42;;;;;;;9.05;4.47;;;24.00;41.20;;;;;;5002605;28;20037;-77
2023/05/19 15:20:08;;;;;;;10.18;3.75;;;24.00;41.50;;;;;;5016919;28;20033;-78
2023/05/19 15:22:33;;;;;;;7.15;3.88;;;24.10;41.90;;;;;;5016972;28;20022;-78
2023/05/19 15:24:59;;;;;;;7.68;3.78;;;24.30;41.30;;;;;;4998938;28;20573;-78
2023/05/19 15:27:26;;;;;;;7.15;4.38;;;24.30;41.20;;;;;;4997400;28;20090;-78
2023/05/19 15:29:51;;;;;;;8.75;4.28;;;24.30;41.20;;;;;;4997060;28;20077;-78
2023/05/19 15:32:17;;;;;;;10.45;4.30;;;24.30;41.00;;;;;;4996969;28;20047;-79
2023/05/19 15:34:43;;;;;;;7.95;3.65;;;24.40;41.20;;;;;;4996235;28;20036;-78
2023/05/19 15:37:08;;;;;;;6.97;3.67;;;24.50;41.00;;;;;;5004920;28;20122;-78
2023/05/19 15:39:34;;;;;;;7.45;3.72;;;24.60;40.80;;;;;;4996965;28;20477;-78
2023/05/19 15:42:00;;;;;;;7.40;3.50;;;24.50;40.80;;;;;;4996914;28;20497;-78
2023/05/19 15:44:25;;;;;;;8.70;3.85;;;24.60;40.40;;;;;;4996794;28;20484;-79
2023/05/19 15:46:51;;;;;;;8.80;4.03;;;24.60;39.70;;;;;;4979375;28;20037;-78
2023/05/19 15:49:17;;;;;;;9.18;4.45;;;24.50;39.50;;;;;;4979380;28;20042;-78
2023/05/19 15:51:43;;;;;;;12.68;4.78;;;24.50;40.30;;;;;;4997051;28;20105;-78
2023/05/19 15:54:09;;;;;;;10.07;3.85;;;24.50;40.90;;;;;;4996816;28;20481;-78
2023/05/19 15:56:35;;;;;;;8.07;2.85;;;24.40;40.70;;;;;;4979282;28;20022;-78
2023/05/19 15:59:00;;;;;;;8.70;3.67;;;24.40;38.30;;;;;;4996493;28;20406;-78
2023/05/19 16:01:26;;;;;;;5.45;3.28;;;24.30;38.20;;;;;;4996857;28;20508;-78
2023/05/19 16:03:52;;;;;;;7.15;3.40;;;24.20;38.60;;;;;;4995794;28;20071;-78
2023/05/19 16:06:17;;;;;;;10.57;3.95;;;24.20;38.70;;;;;;4996418;28;20033;-78
2023/05/19 16:08:43;;;;;;;6.93;3.33;;;24.20;38.40;;;;;;4996710;28;20031;-78
2023/05/19 16:11:09;;;;;;;10.02;4.28;;;24.10;39.00;;;;;;4997102;28;20031;-78
2023/05/19 16:13:35;;;;;;;7.53;3.45;;;24.00;39.10;;;;;;5014316;28;20018;-78
2023/05/19 16:16:00;;;;;;;5.00;3.10;;;23.80;39.10;;;;;;5008019;28;20034;-78
2023/05/19 16:18:27;;;;;;;8.02;3.20;;;23.90;39.60;;;;;;4996610;28;20133;-78
2023/05/19 16:20:54;;;;;;;6.78;3.47;;;23.90;40.20;;;;;;4996528;28;20779;-78
2023/05/19 16:23:19;;;;;;;6.10;2.85;;;23.80;40.30;;;;;;4995323;28;20117;-78
2023/05/19 16:25:46;;;;;;;6.32;3.35;;;23.80;39.80;;;;;;4996172;28;20069;-78
2023/05/19 16:28:11;;;;;;;5.05;3.13;;;23.80;39.20;;;;;;4996427;28;20084;-78
2023/05/19 16:30:37;;;;;;;6.22;2.92;;;23.70;39.10;;;;;;5009873;28;20041;-78
2023/05/19 16:33:03;;;;;;;5.95;3.17;;;23.70;39.50;;;;;;5032361;28;20508;-78
2023/05/19 16:35:28;;;;;;;7.43;3.25;;;23.60;39.40;;;;;;5006646;28;20018;-78
2023/05/19 16:37:54;;;;;;;5.25;3.20;;;23.60;40.00;;;;;;5016011;28;20037;-79
2023/05/19 16:40:20;;;;;;;7.05;3.60;;;23.50;40.40;;;;;;5020978;28;20387;-78
2023/05/19 16:42:45;;;;;;;10.20;3.35;;;23.40;40.40;;;;;;5033034;28;20036;-78
2023/05/19 16:45:11;;;;;;;6.70;3.78;;;23.30;40.80;;;;;;5005448;28;20042;-78
2023/05/19 16:47:37;;;;;;;8.15;2.88;;;23.20;40.70;;;;;;4996172;28;20062;-78
2023/05/19 16:50:03;;;;;;;10.80;3.67;;;23.00;40.90;;;;;;4996143;28;20038;-78
2023/05/19 16:52:29;;;;;;;7.78;3.08;;;22.90;41.00;;;;;;5007733;28;20021;-78
2023/05/19 16:54:54;;;;;;;5.25;3.35;;;22.70;40.80;;;;;;5011916;28;20026;-78
2023/05/19 16:57:20;;;;;;;6.65;3.17;;;22.50;41.00;;;;;;4996647;28;20513;-78
2023/05/19 16:59:47;;;;;;;7.80;3.40;;;22.40;41.10;;;;;;5000066;28;20027;-78
2023/05/19 17:02:13;;;;;;;7.20;3.13;;;22.30;41.90;;;;;;4999881;28;20034;-78
2023/05/19 17:04:38;;;;;;;6.53;2.97;;;22.20;41.30;;;;;;5011281;28;20045;-78
2023/05/19 17:07:04;;;;;;;9.20;3.03;;;22.10;40.70;;;;;;4982371;28;20038;-78
2023/05/19 17:09:30;;;;;;;7.22;3.08;;;22.00;40.60;;;;;;4999927;28;20033;-78
2023/05/19 17:11:55;;;;;;;6.88;2.80;;;22.00;40.20;;;;;;4994294;28;20030;-78